Time;durP1;ratioP1;P1;durP2;ratioP2;P2;SDS_P1;SDS_P2;PMS_P1;PMS_P2;Temp;Humidity;BMP_temperature;BMP_pressure;BME280_temperature;BME280_humidity;BME280_pressure;Samples;Min_cycle;Max_cycle;Signal;HPM_P1;HPM_P2
2023/06/28 00:00:33;;;;;;;5.22;2.10;;;13.50;99.90;;;;;;4976113;28;20137;-71
2023/06/28 00:03:00;;;;;;;5.68;2.08;;;13.50;99.90;;;;;;4975255;28;20051;-71
2023/06/28 00:05:26;;;;;;;4.55;2.13;;;13.50;99.90;;;;;;4975509;28;20062;-71
2023/06/28 00:07:51;;;;;;;4.45;1.90;;;13.50;99.90;;;;;;4975369;28;20046;-71
2023/06/28 00:10:17;;;;;;;3.88;2.00;;;13.50;99.90;;;;;;4975339;28;20038;-71
2023/06/28 00:12:43;;;;;;;4.43;2.15;;;13.50;99.90;;;;;;4975764;28;20133;-71
2023/06/28 00:15:09;;;;;;;4.82;2.38;;;13.50;99.90;;;;;;4975268;28;20367;-70
2023/06/28 00:17:35;;;;;;;5.93;2.28;;;13.50;99.90;;;;;;4974299;28;20051;-70
2023/06/28 00:20:07;;;;;;;3.38;2.40;;;13.50;99.90;;;;;;4975200;28;20054;-70
2023/06/28 00:22:34;;;;;;;3.67;2.17;;;13.40;99.90;;;;;;4975611;28;20411;-70
2023/06/28 00:25:01;;;;;;;3.20;2.10;;;13.50;99.90;;;;;;4974224;28;20069;-70
2023/06/28 00:27:30;;;;;;;6.03;2.40;;;13.50;99.90;;;;;;4976019;28;20117;-70
2023/06/28 00:29:57;;;;;;;5.47;2.30;;;13.40;99.90;;;;;;4974806;28;20086;-70
2023/06/28 00:32:24;;;;;;;7.35;2.65;;;13.40;99.90;;;;;;4975091;28;20089;-70
2023/06/28 00:34:49;;;;;;;3.45;2.03;;;13.40;99.90;;;;;;4974712;28;20514;-70
2023/06/28 00:37:15;;;;;;;5.32;2.55;;;13.40;99.90;;;;;;4974900;28;20043;-70
2023/06/28 00:39:41;;;;;;;4.68;2.33;;;13.30;99.90;;;;;;4975413;28;20049;-70
2023/06/28 00:42:07;;;;;;;7.07;2.28;;;13.20;99.90;;;;;;4974673;28;20098;-70
2023/06/28 00:44:34;;;;;;;4.07;2.00;;;13.20;99.90;;;;;;4973682;28;20050;-70
2023/06/28 00:47:01;;;;;;;3.92;2.22;;;13.20;99.90;;;;;;4974910;28;20051;-70
2023/06/28 00:49:31;;;;;;;5.40;2.20;;;13.20;99.90;;;;;;4974814;28;20047;-70
2023/06/28 00:51:57;;;;;;;4.93;2.17;;;13.20;99.90;;;;;;4974820;28;20062;-70
2023/06/28 00:54:23;;;;;;;4.40;1.88;;;13.20;99.90;;;;;;4974206;28;20052;-71
2023/06/28 00:56:50;;;;;;;3.60;2.25;;;13.20;99.90;;;;;;4974684;28;20061;-70
2023/06/28 00:59:16;;;;;;;4.78;2.20;;;13.10;99.90;;;;;;4974563;28;20042;-70
2023/06/28 01:01:42;;;;;;;4.13;2.08;;;13.00;99.90;;;;;;4974653;28;20488;-71
2023/06/28 01:04:08;;;;;;;3.47;2.10;;;13.00;99.90;;;;;;4974951;28;20506;-71
2023/06/28 01:06:37;;;;;;;6.53;2.33;;;12.90;99.90;;;;;;4975513;28;20054;-70
2023/06/28 01:09:07;;;;;;;4.28;2.20;;;12.90;99.90;;;;;;4974447;28;20138;-70
2023/06/28 01:11:34;;;;;;;4.53;2.35;;;12.90;99.90;;;;;;4975525;28;20082;-70
2023/06/28 01:14:01;;;;;;;4.35;2.30;;;12.90;99.90;;;;;;4974662;28;20057;-71
2023/06/28 01:16:27;;;;;;;5.00;2.00;;;12.90;99.90;;;;;;4973532;28;20046;-70
2023/06/28 01:18:53;;;;;;;4.07;2.25;;;12.90;99.90;;;;;;4974566;28;20058;-70
2023/06/28 01:21:22;;;;;;;3.70;2.03;;;12.80;99.90;;;;;;4973636;28;20070;-70
2023/06/28 01:23:48;;;;;;;4.35;2.20;;;12.70;99.90;;;;;;4974575;28;20491;-70
2023/06/28 01:26:16;;;;;;;5.00;2.30;;;12.70;99.90;;;;;;4975067;28;20054;-70
2023/06/28 01:28:43;;;;;;;4.22;2.50;;;12.70;99.90;;;;;;4974591;28;20058;-70
2023/06/28 01:31:11;;;;;;;4.47;2.53;;;12.70;99.90;;;;;;4974336;28;20062;-70
2023/06/28 01:33:38;;;;;;;3.42;2.00;;;12.60;99.90;;;;;;4974490;28;20407;-70
2023/06/28 01:36:04;;;;;;;3.83;2.25;;;12.70;99.90;;;;;;4974477;28;20130;-70
2023/06/28 01:38:31;;;;;;;4.97;2.20;;;12.70;99.90;;;;;;4974712;28;20126;-70
2023/06/28 01:40:58;;;;;;;3.40;2.25;;;12.70;99.90;;;;;;4974422;28;20046;-70
2023/06/28 01:43:24;;;;;;;3.55;2.20;;;12.70;99.90;;;;;;4975178;28;20047;-70
2023/06/28 01:45:51;;;;;;;7.47;2.40;;;12.60;99.90;;;;;;4974347;28;20050;-71
2023/06/28 01:48:17;;;;;;;5.25;2.65;;;12.60;99.90;;;;;;4974279;28;20492;-70
2023/06/28 01:50:44;;;;;;;5.00;2.30;;;12.60;99.90;;;;;;4974312;28;20051;-71
2023/06/28 01:53:09;;;;;;;5.07;2.50;;;12.50;99.90;;;;;;4974574;28;20046;-70
2023/06/28 01:55:35;;;;;;;3.92;2.50;;;12.50;99.90;;;;;;4974328;28;20394;-70
2023/06/28 01:58:01;;;;;;;5.00;2.47;;;12.50;99.90;;;;;;4974807;28;20058;-71
2023/06/28 02:00:27;;;;;;;4.50;2.60;;;12.40;99.90;;;;;;4974290;28;20423;-70
2023/06/28 02:02:53;;;;;;;5.55;2.70;;;12.40;99.90;;;;;;4974232;28;20121;-70
2023/06/28 02:05:19;;;;;;;3.72;2.45;;;12.30;99.90;;;;;;4976778;28;20101;-70
2023/06/28 02:07:45;;;;;;;4.97;2.63;;;12.30;99.90;;;;;;4977697;28;20046;-70
2023/06/28 02:10:11;;;;;;;3.85;2.42;;;12.20;99.90;;;;;;4977215;28;20050;-71
2023/06/28 02:12:37;;;;;;;4.82;2.60;;;12.20;99.90;;;;;;4977416;28;20050;-71
2023/06/28 02:15:04;;;;;;;5.13;2.65;;;12.20;99.90;;;;;;4977381;28;20054;-70
2023/06/28 02:17:31;;;;;;;4.72;2.75;;;12.20;99.90;;;;;;4977410;28;20046;-71
2023/06/28 02:20:00;;;;;;;7.00;3.20;;;12.20;99.90;;;;;;4977353;28;20054;-71
2023/06/28 02:22:26;;;;;;;6.00;2.92;;;12.30;99.90;;;;;;4977157;28;20051;-70
2023/06/28 02:24:52;;;;;;;4.57;2.95;;;12.30;99.90;;;;;;4977135;28;20488;-70
2023/06/28 02:27:17;;;;;;;9.60;2.95;;;12.30;99.90;;;;;;4977260;28;20060;-70
2023/06/28 02:29:43;;;;;;;4.97;3.03;;;12.30;99.90;;;;;;4976907;28;20058;-70
2023/06/28 02:32:09;;;;;;;6.03;3.58;;;12.30;99.90;;;;;;4978107;28;20102;-70
2023/06/28 02:34:35;;;;;;;5.63;3.10;;;12.40;99.90;;;;;;4977439;28;20053;-70
2023/06/28 02:37:01;;;;;;;6.03;3.40;;;12.50;99.90;;;;;;4977977;28;20494;-69
2023/06/28 02:39:26;;;;;;;8.15;3.00;;;12.50;99.90;;;;;;4977098;28;20082;-69
2023/06/28 02:41:52;;;;;;;6.28;2.92;;;12.60;99.90;;;;;;4977041;28;20078;-69
2023/06/28 02:44:18;;;;;;;8.02;3.75;;;12.60;99.90;;;;;;4975886;28;20055;-69
2023/06/28 02:46:44;;;;;;;5.95;3.38;;;12.60;99.90;;;;;;4976960;28;20049;-69
2023/06/28 02:49:09;;;;;;;6.78;3.33;;;12.60;99.90;;;;;;4975683;28;20042;-70
2023/06/28 02:51:35;;;;;;;5.50;3.00;;;12.60;99.90;;;;;;4977744;28;20053;-71
2023/06/28 02:54:01;;;;;;;6.93;3.50;;;12.70;99.90;;;;;;4975334;28;20050;-70
2023/06/28 02:56:28;;;;;;;6.25;3.25;;;12.70;99.90;;;;;;4976860;28;20049;-70
2023/06/28 02:58:53;;;;;;;5.00;2.88;;;12.70;99.90;;;;;;4976714;28;20134;-70
2023/06/28 03:01:20;;;;;;;4.47;3.22;;;12.70;99.90;;;;;;4976645;28;20133;-70
2023/06/28 03:03:47;;;;;;;7.80;3.92;;;12.80;99.90;;;;;;4976587;28;20051;-70
2023/06/28 03:06:16;;;;;;;7.22;3.40;;;12.80;99.90;;;;;;4976234;28;20059;-71
2023/06/28 03:08:42;;;;;;;6.50;3.05;;;12.80;99.90;;;;;;4976148;28;20082;-71
2023/06/28 03:11:08;;;;;;;5.50;3.40;;;12.90;99.90;;;;;;4976707;28;20090;-70
2023/06/28 03:13:33;;;;;;;7.63;3.58;;;12.90;99.90;;;;;;4976083;28;20055;-70
2023/06/28 03:16:00;;;;;;;6.15;3.55;;;12.90;99.90;;;;;;4975937;28;20400;-70
2023/06/28 03:18:26;;;;;;;6.10;3.50;;;13.00;99.90;;;;;;4976348;28;20050;-70
2023/06/28 03:20:52;;;;;;;6.80;3.90;;;13.00;99.90;;;;;;4975102;28;20047;-70
2023/06/28 03:23:18;;;;;;;10.43;3.85;;;13.00;99.90;;;;;;4975846;28;20047;-70
2023/06/28 03:25:43;;;;;;;7.35;4.40;;;13.00;99.90;;;;;;4975036;28;20058;-70
2023/06/28 03:28:10;;;;;;;8.60;4.00;;;13.00;99.90;;;;;;4976700;28;20054;-70
2023/06/28 03:30:36;;;;;;;5.80;4.05;;;13.00;99.90;;;;;;4976257;28;20066;-70
2023/06/28 03:33:01;;;;;;;8.38;4.32;;;13.00;99.90;;;;;;4976059;28;20493;-70
2023/06/28 03:35:27;;;;;;;8.07;4.72;;;13.10;99.90;;;;;;4976111;28;20053;-70
2023/06/28 03:37:54;;;;;;;7.85;4.13;;;13.10;99.90;;;;;;4976073;28;20531;-70
2023/06/28 03:40:20;;;;;;;9.95;4.43;;;13.10;99.90;;;;;;4976011;28;20042;-70
2023/06/28 03:42:47;;;;;;;10.43;4.30;;;13.10;99.90;;;;;;4975386;28;20074;-70
2023/06/28 03:45:16;;;;;;;6.80;4.22;;;13.10;99.90;;;;;;4977171;28;20054;-69
2023/06/28 03:47:42;;;;;;;6.10;4.28;;;13.20;99.90;;;;;;4977807;28;20089;-69
2023/06/28 03:50:08;;;;;;;7.07;4.82;;;13.20;99.90;;;;;;4977612;28;20082;-69
2023/06/28 03:52:35;;;;;;;7.32;4.40;;;13.20;99.90;;;;;;4976111;28;20055;-70
2023/06/28 03:55:01;;;;;;;10.93;4.50;;;13.20;99.90;;;;;;4974566;28;20054;-70
2023/06/28 03:57:27;;;;;;;6.50;4.70;;;13.20;99.90;;;;;;4975429;28;20059;-70
2023/06/28 03:59:52;;;;;;;7.32;4.10;;;13.20;99.90;;;;;;4975514;28;20039;-69
2023/06/28 04:02:19;;;;;;;6.68;4.43;;;13.20;99.90;;;;;;4975882;28;20066;-70
2023/06/28 04:04:45;;;;;;;7.00;3.88;;;13.20;99.90;;;;;;4975567;28;20050;-70
2023/06/28 04:07:11;;;;;;;8.32;3.90;;;13.20;99.90;;;;;;4976287;28;20054;-70
2023/06/28 04:09:38;;;;;;;6.93;4.63;;;13.30;99.90;;;;;;4975325;28;20185;-71
2023/06/28 04:12:04;;;;;;;6.88;4.00;;;13.30;99.90;;;;;;4975508;28;20505;-70
2023/06/28 04:14:30;;;;;;;5.55;4.00;;;13.40;99.90;;;;;;4975602;28;20046;-70
2023/06/28 04:16:56;;;;;;;5.88;3.78;;;13.40;99.90;;;;;;4959106;28;20445;-70
2023/06/28 04:19:22;;;;;;;8.13;3.97;;;13.40;99.90;;;;;;4975292;28;20051;-70
2023/06/28 04:21:47;;;;;;;6.53;4.13;;;13.40;99.90;;;;;;4975306;28;20063;-70
2023/06/28 04:24:13;;;;;;;7.15;4.13;;;13.50;99.90;;;;;;4975246;28;20047;-71
2023/06/28 04:26:39;;;;;;;8.27;4.38;;;13.50;99.90;;;;;;4974226;28;20137;-70
2023/06/28 04:29:05;;;;;;;8.82;4.63;;;13.60;99.90;;;;;;4975312;28;20454;-70
2023/06/28 04:31:30;;;;;;;8.07;4.90;;;13.60;99.90;;;;;;4957573;28;20404;-70
2023/06/28 04:33:57;;;;;;;6.88;4.35;;;13.60;99.90;;;;;;4974983;28;20055;-70
2023/06/28 04:36:25;;;;;;;7.50;4.68;;;13.70;99.90;;;;;;4975268;28;20046;-70
2023/06/28 04:38:55;;;;;;;8.90;4.53;;;13.70;99.90;;;;;;4974924;28;20047;-70
2023/06/28 04:41:25;;;;;;;7.43;4.60;;;13.70;99.90;;;;;;4975167;28;20443;-70
2023/06/28 04:43:55;;;;;;;8.07;5.07;;;13.80;99.90;;;;;;4975600;28;20047;-70
2023/06/28 04:46:26;;;;;;;8.88;5.90;;;13.80;99.90;;;;;;4974965;28;20118;-70
2023/06/28 04:48:53;;;;;;;8.23;5.00;;;13.90;99.90;;;;;;4974849;28;20054;-70
2023/06/28 04:51:20;;;;;;;7.18;4.90;;;13.90;99.90;;;;;;4975653;28;20070;-70
2023/06/28 04:53:47;;;;;;;7.32;4.70;;;13.90;99.90;;;;;;4974920;28;20447;-70
2023/06/28 04:56:14;;;;;;;7.07;4.82;;;14.00;99.90;;;;;;4974894;28;20185;-70
2023/06/28 04:58:40;;;;;;;7.22;4.22;;;14.00;99.90;;;;;;4975059;28;20050;-71
2023/06/28 05:01:07;;;;;;;8.20;5.10;;;14.00;99.90;;;;;;4974642;28;20057;-70
2023/06/28 05:03:34;;;;;;;8.18;4.53;;;14.00;99.90;;;;;;4974606;28;20054;-70
2023/06/28 05:06:10;;;;;;;6.28;4.78;;;14.10;99.90;;;;;;4974734;28;20050;-70
2023/06/28 05:08:36;;;;;;;6.55;4.43;;;14.10;99.90;;;;;;4975579;28;20113;-70
2023/06/28 05:11:02;;;;;;;7.57;4.38;;;14.10;99.90;;;;;;4975423;28;20047;-71
2023/06/28 05:13:28;;;;;;;7.85;4.78;;;14.10;99.90;;;;;;4975300;28;20085;-70
2023/06/28 05:15:54;;;;;;;7.57;4.70;;;14.20;99.90;;;;;;4974592;28;20369;-70
2023/06/28 05:18:20;;;;;;;8.25;4.32;;;14.20;99.90;;;;;;4974477;28;20057;-71
2023/06/28 05:20:46;;;;;;;7.63;4.40;;;14.20;99.90;;;;;;4975227;28;20420;-71
2023/06/28 05:23:14;;;;;;;6.10;4.32;;;14.30;99.90;;;;;;4975012;28;20492;-71
2023/06/28 05:25:41;;;;;;;7.43;4.05;;;14.30;99.90;;;;;;4974469;28;20054;-71
2023/06/28 05:28:08;;;;;;;7.18;4.13;;;14.30;99.90;;;;;;4975341;28;20369;-71
2023/06/28 05:30:34;;;;;;;5.10;4.07;;;14.40;99.90;;;;;;4972954;28;20062;-71
2023/06/28 05:33:02;;;;;;;6.72;3.72;;;14.40;99.90;;;;;;4974432;28;20104;-70
2023/06/28 05:35:32;;;;;;;6.30;4.00;;;14.40;99.90;;;;;;4974177;28;20500;-70
2023/06/28 05:38:02;;;;;;;5.68;3.42;;;14.40;99.90;;;;;;4974433;28;20050;-70
2023/06/28 05:40:28;;;;;;;7.95;3.85;;;14.40;99.90;;;;;;4977386;28;20073;-70
2023/06/28 05:42:54;;;;;;;6.57;3.33;;;14.50;99.90;;;;;;4978396;28;20399;-70
2023/06/28 05:45:27;;;;;;;6.68;3.80;;;14.50;99.90;;;;;;4978425;28;20369;-70
2023/06/28 05:47:54;;;;;;;5.30;3.58;;;14.60;99.90;;;;;;4977100;28;20444;-70
2023/06/28 05:50:22;;;;;;;6.75;3.40;;;14.60;99.90;;;;;;4977908;28;20050;-70
2023/06/28 05:52:49;;;;;;;6.53;3.47;;;14.70;99.90;;;;;;4977402;28;20468;-70
2023/06/28 05:55:15;;;;;;;6.80;3.60;;;14.70;99.90;;;;;;4977962;28;20042;-70
2023/06/28 05:57:41;;;;;;;7.20;3.50;;;14.80;99.90;;;;;;4976942;28;20050;-70
2023/06/28 06:00:09;;;;;;;5.05;3.10;;;14.70;99.90;;;;;;4977728;28;20070;-69
2023/06/28 06:02:35;;;;;;;5.60;3.30;;;14.80;99.90;;;;;;4977547;28;20089;-69
2023/06/28 06:05:02;;;;;;;4.53;2.63;;;14.80;99.90;;;;;;4977757;28;20125;-69
2023/06/28 06:07:29;;;;;;;4.53;2.58;;;14.90;99.90;;;;;;4976577;28;20129;-70
2023/06/28 06:09:55;;;;;;;4.78;2.67;;;14.90;99.90;;;;;;4977616;28;20546;-70
2023/06/28 06:12:21;;;;;;;6.13;2.25;;;14.90;99.90;;;;;;4977206;28;20043;-70
2023/06/28 06:14:50;;;;;;;3.50;2.30;;;15.00;99.90;;;;;;4976337;28;20506;-71
2023/06/28 06:17:17;;;;;;;3.70;2.28;;;15.10;99.90;;;;;;4977475;28;20046;-64
2023/06/28 06:19:43;;;;;;;3.20;2.22;;;15.10;99.90;;;;;;4977081;28;20547;-63
2023/06/28 06:22:08;;;;;;;5.38;2.38;;;15.20;99.90;;;;;;4977672;28;20182;-63
2023/06/28 06:24:34;;;;;;;3.88;2.30;;;15.20;99.90;;;;;;4977378;28;20046;-63
2023/06/28 06:27:00;;;;;;;3.63;2.30;;;15.30;99.90;;;;;;4977408;28;20058;-63
2023/06/28 06:29:26;;;;;;;3.90;1.75;;;15.40;99.90;;;;;;4975872;28;20066;-63
2023/06/28 06:31:51;;;;;;;3.13;1.83;;;15.40;99.90;;;;;;4977892;28;20066;-63
2023/06/28 06:34:17;;;;;;;3.78;1.92;;;15.50;99.90;;;;;;4977158;28;20138;-70
2023/06/28 06:36:43;;;;;;;4.05;2.42;;;15.60;99.90;;;;;;4977161;28;20047;-71
2023/06/28 06:39:09;;;;;;;4.07;2.20;;;15.60;99.90;;;;;;4976045;28;20042;-69
2023/06/28 06:41:35;;;;;;;4.70;2.08;;;15.70;99.90;;;;;;4976968;28;20065;-70
2023/06/28 06:44:00;;;;;;;5.75;2.92;;;15.70;99.90;;;;;;4976076;28;20391;-69
2023/06/28 06:46:26;;;;;;;5.00;2.55;;;15.70;99.90;;;;;;4977731;28;20506;-70
2023/06/28 06:48:52;;;;;;;4.90;2.83;;;15.70;99.90;;;;;;4975868;28;20641;-70
2023/06/28 06:51:18;;;;;;;5.88;3.35;;;15.80;99.90;;;;;;4975857;28;20051;-69
2023/06/28 06:53:43;;;;;;;7.10;2.78;;;15.80;99.90;;;;;;4976821;28;20057;-70
2023/06/28 06:56:09;;;;;;;3.97;2.80;;;15.80;99.90;;;;;;4977233;28;20129;-70
2023/06/28 06:58:36;;;;;;;5.35;3.20;;;15.90;99.90;;;;;;4976646;28;20039;-70
2023/06/28 07:01:02;;;;;;;6.10;3.03;;;15.90;99.90;;;;;;4976763;28;20097;-70
2023/06/28 07:03:28;;;;;;;4.97;2.75;;;16.00;99.90;;;;;;4976717;28;20427;-70
2023/06/28 07:05:53;;;;;;;5.90;3.53;;;16.00;99.90;;;;;;4976722;28;20047;-69
2023/06/28 07:08:19;;;;;;;6.05;3.60;;;15.90;99.90;;;;;;4977247;28;20093;-71
2023/06/28 07:10:45;;;;;;;5.15;3.42;;;15.90;99.90;;;;;;4976475;28;20424;-70
2023/06/28 07:13:11;;;;;;;6.07;3.13;;;15.90;99.90;;;;;;4975981;28;20510;-69
2023/06/28 07:15:36;;;;;;;6.30;3.42;;;15.90;99.90;;;;;;4974867;28;20054;-69
2023/06/28 07:18:03;;;;;;;6.03;3.80;;;15.90;99.90;;;;;;4976940;28;20096;-69
2023/06/28 07:20:29;;;;;;;5.25;3.33;;;15.90;99.90;;;;;;4976397;28;20148;-69
2023/06/28 07:22:55;;;;;;;4.95;3.30;;;16.00;99.90;;;;;;4976055;28;20103;-70
2023/06/28 07:25:20;;;;;;;7.35;3.33;;;15.90;99.90;;;;;;4975295;28;20075;-70
2023/06/28 07:27:46;;;;;;;6.13;3.53;;;16.00;99.90;;;;;;4975941;28;20396;-70
2023/06/28 07:30:12;;;;;;;5.80;3.60;;;16.00;99.90;;;;;;4975941;28;20054;-70
2023/06/28 07:32:37;;;;;;;6.80;3.78;;;15.90;99.90;;;;;;4976385;28;20061;-71
2023/06/28 07:35:03;;;;;;;7.03;3.95;;;15.90;99.90;;;;;;4976266;28;20542;-69
2023/06/28 07:37:30;;;;;;;8.60;3.40;;;15.90;99.90;;;;;;4976298;28;20070;-69
2023/06/28 07:39:58;;;;;;;6.97;3.45;;;15.80;99.90;;;;;;4975735;28;20043;-70
2023/06/28 07:42:24;;;;;;;6.93;3.90;;;15.90;99.90;;;;;;4975438;28;20117;-72
2023/06/28 07:44:50;;;;;;;7.20;4.20;;;15.80;99.90;;;;;;4975068;28;20053;-70
2023/06/28 07:47:16;;;;;;;7.60;4.50;;;15.80;99.90;;;;;;4975368;28;20570;-70
2023/06/28 07:49:41;;;;;;;5.60;3.92;;;15.80;99.90;;;;;;4975416;28;20053;-72
2023/06/28 07:52:07;;;;;;;7.25;4.30;;;15.80;99.90;;;;;;4974560;28;20562;-71
2023/06/28 07:54:33;;;;;;;7.60;4.68;;;15.70;99.90;;;;;;4975026;28;20388;-70
2023/06/28 07:56:59;;;;;;;6.82;4.35;;;15.60;99.90;;;;;;4976113;28;20058;-70
2023/06/28 07:59:25;;;;;;;8.23;4.18;;;15.50;99.90;;;;;;4974241;28;20050;-71
2023/06/28 08:01:50;;;;;;;8.98;4.13;;;15.50;99.90;;;;;;4975234;28;20538;-71
2023/06/28 08:04:16;;;;;;;6.97;4.32;;;15.50;99.90;;;;;;4975424;28;20129;-71
2023/06/28 08:06:43;;;;;;;11.00;4.80;;;15.50;99.90;;;;;;4975518;28;20368;-69
2023/06/28 08:09:09;;;;;;;8.27;4.63;;;15.50;99.90;;;;;;4975266;28;20078;-69
2023/06/28 08:11:35;;;;;;;10.63;5.32;;;15.60;99.90;;;;;;4975839;28;20475;-69
2023/06/28 08:14:01;;;;;;;11.18;5.03;;;15.70;99.90;;;;;;4975711;28;20190;-71
2023/06/28 08:16:26;;;;;;;11.18;5.22;;;15.70;99.90;;;;;;4974971;28;20043;-70
2023/06/28 08:18:52;;;;;;;9.18;5.68;;;15.80;99.90;;;;;;4975240;28;20043;-69
2023/06/28 08:21:18;;;;;;;9.07;5.35;;;15.80;99.90;;;;;;4975230;28;20047;-70
2023/06/28 08:23:44;;;;;;;9.23;5.82;;;15.90;99.90;;;;;;4975267;28;20480;-68
2023/06/28 08:26:09;;;;;;;9.95;5.68;;;15.80;99.90;;;;;;4975353;28;20078;-69
2023/06/28 08:28:35;;;;;;;9.93;5.45;;;15.80;99.90;;;;;;4975140;28;20046;-70
2023/06/28 08:31:01;;;;;;;10.60;6.07;;;15.80;99.90;;;;;;4974429;28;20054;-71
2023/06/28 08:33:27;;;;;;;8.55;5.60;;;15.70;99.90;;;;;;4975303;28;20507;-71
2023/06/28 08:35:52;;;;;;;9.73;6.32;;;15.80;99.90;;;;;;4957958;28;20475;-72
2023/06/28 08:38:18;;;;;;;11.77;6.25;;;15.80;99.90;;;;;;4974953;28;20130;-71
2023/06/28 08:40:44;;;;;;;10.32;6.55;;;16.00;99.90;;;;;;4974961;28;20539;-71
2023/06/28 08:43:15;;;;;;;12.98;6.45;;;16.30;99.90;;;;;;4975358;28;20384;-71
2023/06/28 08:45:43;;;;;;;9.95;6.55;;;16.40;99.90;;;;;;4974901;28;20054;-70
2023/06/28 08:48:09;;;;;;;10.60;6.32;;;16.50;99.90;;;;;;4974986;28;20129;-70
2023/06/28 08:50:38;;;;;;;11.32;6.03;;;16.60;99.90;;;;;;4974904;28;20468;-70
2023/06/28 08:53:08;;;;;;;9.82;5.45;;;16.50;99.90;;;;;;4974828;28;20089;-68
2023/06/28 08:55:34;;;;;;;9.38;6.22;;;16.60;99.90;;;;;;4973878;28;20050;-69
2023/06/28 08:58:01;;;;;;;9.23;5.47;;;16.50;99.90;;;;;;4974721;28;20074;-69
2023/06/28 09:00:27;;;;;;;9.43;5.82;;;16.60;99.90;;;;;;4975009;28;20053;-69
2023/06/28 09:02:53;;;;;;;9.38;5.30;;;16.50;99.90;;;;;;4972981;28;20051;-71
2023/06/28 09:05:19;;;;;;;9.20;5.63;;;16.50;99.90;;;;;;4974498;28;20057;-70
2023/06/28 09:07:48;;;;;;;8.73;6.13;;;16.50;99.90;;;;;;4975044;28;20460;-69
2023/06/28 09:10:15;;;;;;;8.20;5.57;;;16.50;99.90;;;;;;4957460;28;20472;-70
2023/06/28 09:12:41;;;;;;;10.85;6.30;;;16.50;99.90;;;;;;4974608;28;20063;-69
2023/06/28 09:15:07;;;;;;;10.18;6.30;;;16.50;99.90;;;;;;4977162;28;20068;-69
2023/06/28 09:17:33;;;;;;;8.30;5.35;;;16.60;99.90;;;;;;4978599;28;20431;-69
2023/06/28 09:20:15;;;;;;;11.02;5.57;;;16.70;99.90;;;;;;4978301;28;20042;-69
2023/06/28 09:22:41;;;;;;;10.20;5.82;;;16.80;99.90;;;;;;4979113;28;20464;-69
2023/06/28 09:25:07;;;;;;;8.60;5.13;;;16.80;99.90;;;;;;4978442;28;20055;-69
2023/06/28 09:27:33;;;;;;;7.63;5.55;;;16.80;99.90;;;;;;4978383;28;20097;-70
2023/06/28 09:30:02;;;;;;;8.88;5.88;;;16.70;99.90;;;;;;4977113;28;20061;-70
2023/06/28 09:32:41;;;;;;;7.43;5.25;;;16.70;99.90;;;;;;4978271;28;20050;-69
2023/06/28 09:35:10;;;;;;;10.70;5.55;;;16.60;99.90;;;;;;4978822;28;20051;-69
2023/06/28 09:37:38;;;;;;;11.18;6.20;;;16.60;99.90;;;;;;4978557;28;20093;-69
2023/06/28 09:40:06;;;;;;;7.57;5.40;;;16.50;99.90;;;;;;4978085;28;20047;-68
2023/06/28 09:42:32;;;;;;;8.40;5.70;;;16.60;99.90;;;;;;4978079;28;20055;-69
2023/06/28 09:44:58;;;;;;;9.32;5.93;;;16.60;99.90;;;;;;4977867;28;20053;-68
2023/06/28 09:47:32;;;;;;;10.73;6.57;;;16.70;99.90;;;;;;4978414;28;20129;-68
2023/06/28 09:50:03;;;;;;;8.27;5.80;;;16.70;99.90;;;;;;4977979;28;20086;-68
2023/06/28 09:52:35;;;;;;;8.75;5.72;;;16.70;99.90;;;;;;4977981;28;20126;-68
2023/06/28 09:55:03;;;;;;;8.75;6.10;;;16.70;99.90;;;;;;4977825;28;20553;-70
2023/06/28 09:57:30;;;;;;;9.98;5.68;;;16.80;99.90;;;;;;4977807;28;20093;-70
2023/06/28 10:00:00;;;;;;;10.70;6.93;;;16.70;99.90;;;;;;4978333;28;20043;-68
2023/06/28 10:02:27;;;;;;;11.10;6.40;;;16.70;99.90;;;;;;4977646;28;20491;-68
2023/06/28 10:04:54;;;;;;;9.32;6.47;;;16.70;99.90;;;;;;4977704;28;20057;-69
2023/06/28 10:07:20;;;;;;;8.30;5.80;;;16.70;99.90;;;;;;4977714;28;20078;-69
2023/06/28 10:09:47;;;;;;;8.80;6.25;;;16.70;99.90;;;;;;4978308;28;20452;-69
2023/06/28 10:12:16;;;;;;;11.05;6.60;;;16.60;99.90;;;;;;4977514;28;20483;-68
2023/06/28 10:15:01;;;;;;;11.60;7.10;;;16.60;99.90;;;;;;4977497;28;20380;-69
2023/06/28 10:17:34;;;;;;;10.77;7.10;;;16.60;99.90;;;;;;4977394;28;20050;-69
2023/06/28 10:20:00;;;;;;;10.18;6.72;;;16.70;99.90;;;;;;4977234;28;20046;-70
2023/06/28 10:22:26;;;;;;;10.82;6.43;;;16.70;99.90;;;;;;4977805;28;20042;-68
2023/06/28 10:24:53;;;;;;;12.20;7.22;;;16.70;99.90;;;;;;4977189;28;20120;-70
2023/06/28 10:27:20;;;;;;;11.82;7.97;;;16.70;99.90;;;;;;4977222;28;20138;-70
2023/06/28 10:29:51;;;;;;;11.05;7.10;;;16.70;99.90;;;;;;4976960;28;20398;-69
2023/06/28 10:32:17;;;;;;;12.10;7.90;;;16.70;99.90;;;;;;4977247;28;20058;-69
2023/06/28 10:34:45;;;;;;;12.20;7.88;;;16.80;99.90;;;;;;4976238;28;20055;-69
2023/06/28 10:37:12;;;;;;;12.48;7.75;;;16.80;99.90;;;;;;4976938;28;20093;-68
2023/06/28 10:39:38;;;;;;;13.30;8.45;;;16.90;99.90;;;;;;4977311;28;20043;-69
2023/06/28 10:42:05;;;;;;;13.23;7.72;;;16.90;99.90;;;;;;4977045;28;20062;-71
2023/06/28 10:44:31;;;;;;;13.82;8.15;;;17.00;99.90;;;;;;4976994;28;20049;-69
2023/06/28 10:47:11;;;;;;;13.68;8.00;;;17.00;99.90;;;;;;4977044;28;20275;-72
2023/06/28 10:49:40;;;;;;;12.07;8.50;;;17.00;99.90;;;;;;4976814;28;20043;-71
2023/06/28 10:52:16;;;;;;;15.05;8.57;;;17.10;99.90;;;;;;4976958;28;20055;-70
2023/06/28 10:54:42;;;;;;;12.77;9.30;;;17.10;99.90;;;;;;4977431;28;20054;-69
2023/06/28 10:57:10;;;;;;;14.30;8.95;;;17.00;99.90;;;;;;4976822;28;20400;-70
2023/06/28 10:59:41;;;;;;;15.85;8.85;;;17.00;99.90;;;;;;4976719;28;20053;-70
2023/06/28 11:02:07;;;;;;;15.20;9.15;;;17.00;99.90;;;;;;4976782;28;20137;-70
2023/06/28 11:04:33;;;;;;;14.85;9.35;;;17.00;99.90;;;;;;4976555;28;20150;-70
2023/06/28 11:07:07;;;;;;;15.63;9.38;;;17.00;99.90;;;;;;4976276;28;20042;-70
2023/06/28 11:09:34;;;;;;;15.60;9.60;;;17.10;99.90;;;;;;4976541;28;20047;-70
2023/06/28 11:12:00;;;;;;;12.70;8.85;;;17.00;99.90;;;;;;4976497;28;20051;-69
2023/06/28 11:14:31;;;;;;;17.95;9.38;;;17.00;99.90;;;;;;4976488;28;20047;-65
2023/06/28 11:17:06;;;;;;;13.75;8.98;;;17.00;99.90;;;;;;4960117;28;20063;-64
2023/06/28 11:19:32;;;;;;;14.73;8.65;;;17.00;99.90;;;;;;4976959;28;20062;-64
2023/06/28 11:21:59;;;;;;;16.25;9.25;;;17.00;99.90;;;;;;4975166;28;20050;-63
2023/06/28 11:24:25;;;;;;;16.58;9.93;;;17.00;99.90;;;;;;4976800;28;20130;-63
2023/06/28 11:26:51;;;;;;;16.13;9.05;;;17.00;99.90;;;;;;4976213;28;20050;-63
2023/06/28 11:29:19;;;;;;;14.88;9.65;;;17.00;99.90;;;;;;4976977;28;20047;-62
2023/06/28 11:31:49;;;;;;;13.73;8.73;;;17.00;99.90;;;;;;4977259;28;20475;-64
2023/06/28 11:34:16;;;;;;;14.15;8.77;;;17.00;99.90;;;;;;4976838;28;20051;-63
2023/06/28 11:36:43;;;;;;;14.07;9.57;;;17.00;99.90;;;;;;4976252;28;20057;-64
2023/06/28 11:39:17;;;;;;;14.10;9.50;;;17.00;99.90;;;;;;4976082;28;20435;-64
2023/06/28 11:41:43;;;;;;;14.82;8.90;;;17.00;99.90;;;;;;4975998;28;20050;-64
2023/06/28 11:44:11;;;;;;;13.73;9.20;;;17.10;99.90;;;;;;4975940;28;20057;-65
2023/06/28 11:46:38;;;;;;;12.80;9.20;;;17.10;99.90;;;;;;4975993;28;20073;-64
2023/06/28 11:49:04;;;;;;;14.90;9.00;;;17.10;99.90;;;;;;4975722;28;20484;-64
2023/06/28 11:51:30;;;;;;;14.63;8.95;;;17.10;99.90;;;;;;4976359;28;20053;-66
2023/06/28 11:53:56;;;;;;;13.80;9.10;;;17.10;99.90;;;;;;4975759;28;20050;-64
2023/06/28 11:56:44;;;;;;;13.20;9.68;;;17.20;99.90;;;;;;4974866;28;20046;-64
2023/06/28 11:59:21;;;;;;;12.23;8.63;;;17.20;99.90;;;;;;4975674;28;20055;-64
2023/06/28 12:01:47;;;;;;;11.95;8.90;;;17.20;99.90;;;;;;4975773;28;20390;-63
2023/06/28 12:04:17;;;;;;;12.00;9.23;;;17.20;99.90;;;;;;4975373;28;20054;-64
2023/06/28 12:06:44;;;;;;;13.85;9.65;;;17.30;99.90;;;;;;4974570;28;20106;-64
2023/06/28 12:09:27;;;;;;;12.23;9.23;;;17.40;99.90;;;;;;4975414;28;20043;-64
2023/06/28 12:12:02;;;;;;;12.75;9.27;;;17.40;99.90;;;;;;4975463;28;20054;-64
2023/06/28 12:14:29;;;;;;;12.07;9.20;;;17.50;99.90;;;;;;4975380;28;20046;-64
2023/06/28 12:16:57;;;;;;;13.07;8.70;;;17.60;99.90;;;;;;4975341;28;20097;-64
2023/06/28 12:19:33;;;;;;;14.05;9.95;;;17.60;99.90;;;;;;4975894;28;20058;-63
2023/06/28 12:22:03;;;;;;;13.68;9.68;;;17.60;99.90;;;;;;4975873;28;20057;-63
2023/06/28 12:24:30;;;;;;;14.80;9.23;;;17.60;99.90;;;;;;4975229;28;20522;-63
2023/06/28 12:27:05;;;;;;;12.73;9.00;;;17.70;99.90;;;;;;4974208;28;20062;-63
2023/06/28 12:29:33;;;;;;;13.35;8.98;;;17.70;99.90;;;;;;4975659;28;20050;-64
2023/06/28 12:32:11;;;;;;;11.88;8.77;;;17.80;99.90;;;;;;4975059;28;20051;-64
2023/06/28 12:34:38;;;;;;;11.70;8.73;;;17.80;99.90;;;;;;4975131;28;20499;-64
2023/06/28 12:37:09;;;;;;;12.45;9.10;;;17.80;99.90;;;;;;4975109;28;20089;-64
2023/06/28 12:39:36;;;;;;;11.52;8.18;;;17.70;99.90;;;;;;4975149;28;20043;-64
2023/06/28 12:42:07;;;;;;;12.13;8.48;;;17.80;99.90;;;;;;4975429;28;20051;-64